Time;durP1;ratioP1;P1;durP2;ratioP2;P2;SDS_P1;SDS_P2;PMS_P1;PMS_P2;Temp;Humidity;BMP_temperature;BMP_pressure;BME280_temperature;BME280_humidity;BME280_pressure;Samples;Min_cycle;Max_cycle;Signal;HPM_P1;HPM_P2
2022/08/25 00:01:22;;;;;;;7.90;3.28;;;27.40;1.00;;;;;;5032307;28;20071;-53
2022/08/25 00:03:48;;;;;;;3.95;3.05;;;27.40;1.00;;;;;;5031902;28;20061;-53
2022/08/25 00:06:15;;;;;;;3.83;3.35;;;27.50;1.00;;;;;;5032227;28;20048;-55
2022/08/25 00:08:43;;;;;;;4.60;2.67;;;27.50;1.00;;;;;;5034557;28;20532;-55
2022/08/25 00:11:13;;;;;;;6.05;2.90;;;27.40;1.00;;;;;;5032209;28;20067;-53
2022/08/25 00:13:44;;;;;;;6.95;3.03;;;27.40;1.00;;;;;;5033262;28;20371;-55
2022/08/25 00:16:12;;;;;;;5.50;2.97;;;27.30;1.00;;;;;;5031670;28;20100;-52
2022/08/25 00:18:39;;;;;;;4.10;2.53;;;27.30;1.00;;;;;;5031092;28;20091;-55
2022/08/25 00:21:05;;;;;;;3.63;2.70;;;27.40;1.00;;;;;;5031867;28;20480;-55
2022/08/25 00:23:31;;;;;;;4.07;2.92;;;27.30;1.00;;;;;;5033660;28;20550;-54
2022/08/25 00:25:57;;;;;;;4.43;2.58;;;27.30;1.00;;;;;;5033169;28;20098;-57
2022/08/25 00:28:22;;;;;;;4.95;2.70;;;27.30;1.00;;;;;;5031224;28;20034;-57
2022/08/25 00:30:48;;;;;;;6.38;2.95;;;27.30;1.00;;;;;;5031694;28;20115;-55
2022/08/25 00:33:15;;;;;;;3.45;2.25;;;27.30;1.00;;;;;;5030869;28;20467;-56
2022/08/25 00:35:42;;;;;;;4.78;3.10;;;27.40;1.00;;;;;;5035400;28;20028;-56
2022/08/25 00:38:09;;;;;;;6.68;2.55;;;27.40;1.00;;;;;;5031217;28;20030;-56
2022/08/25 00:40:36;;;;;;;3.38;2.53;;;27.40;1.00;;;;;;5031591;28;20021;-55
2022/08/25 00:43:04;;;;;;;3.65;2.75;;;27.40;1.00;;;;;;5031645;28;20203;-55
2022/08/25 00:45:30;;;;;;;3.60;2.63;;;27.30;1.00;;;;;;5028139;28;20369;-55
2022/08/25 00:47:56;;;;;;;3.97;2.70;;;27.20;1.00;;;;;;5031763;28;20033;-54
2022/08/25 00:50:22;;;;;;;5.07;2.60;;;27.30;1.00;;;;;;5030720;28;20033;-56
2022/08/25 00:52:52;;;;;;;3.63;2.63;;;27.30;1.00;;;;;;5031544;28;20040;-56
2022/08/25 00:55:23;;;;;;;7.88;2.65;;;27.30;1.00;;;;;;5030638;28;20087;-55
2022/08/25 00:57:56;;;;;;;7.78;2.75;;;27.20;1.00;;;;;;5031673;28;20428;-55
2022/08/25 01:00:30;;;;;;;7.10;2.50;;;27.20;1.00;;;;;;5030309;28;20438;-55
2022/08/25 01:02:56;;;;;;;5.47;3.03;;;27.20;1.00;;;;;;5039125;28;20049;-55
2022/08/25 01:05:24;;;;;;;3.70;2.67;;;27.20;1.00;;;;;;5034471;28;20025;-51
2022/08/25 01:07:51;;;;;;;5.22;2.80;;;27.10;1.00;;;;;;5026059;28;20490;-51
2022/08/25 01:10:17;;;;;;;5.05;2.72;;;27.10;1.00;;;;;;5016488;28;20484;-53
2022/08/25 01:12:58;;;;;;;9.35;2.85;;;27.10;1.00;;;;;;5027112;28;20033;-52
2022/08/25 01:15:24;;;;;;;6.65;3.03;;;27.10;1.00;;;;;;5032122;28;20103;-55
2022/08/25 01:17:53;;;;;;;3.88;2.50;;;27.00;1.00;;;;;;5027977;28;20422;-54
2022/08/25 01:20:22;;;;;;;4.88;2.33;;;27.00;1.00;;;;;;5030960;28;20034;-52
2022/08/25 01:22:49;;;;;;;3.60;2.50;;;27.10;1.00;;;;;;5027185;28;20109;-56
2022/08/25 01:25:34;;;;;;;6.57;2.65;;;27.00;1.00;;;;;;5035735;28;20034;-55
2022/08/25 01:28:03;;;;;;;4.78;2.47;;;26.90;1.00;;;;;;5034833;28;20414;-54
2022/08/25 01:30:29;;;;;;;6.50;2.78;;;27.00;1.00;;;;;;5032003;28;20052;-51
2022/08/25 01:32:55;;;;;;;5.45;2.90;;;27.00;1.00;;;;;;5029355;28;20483;-55
2022/08/25 01:35:24;;;;;;;4.00;2.42;;;26.90;1.00;;;;;;5034268;28;20029;-53
2022/08/25 01:37:49;;;;;;;6.25;3.05;;;27.00;1.00;;;;;;5035135;28;20072;-56
2022/08/25 01:40:15;;;;;;;3.50;2.75;;;27.00;1.00;;;;;;5034026;28;20033;-56
2022/08/25 01:43:01;;;;;;;5.95;2.97;;;26.90;1.00;;;;;;5033568;28;20034;-53
2022/08/25 01:45:26;;;;;;;3.45;2.25;;;26.90;1.00;;;;;;5022253;28;20030;-55
2022/08/25 01:47:53;;;;;;;5.32;2.55;;;26.90;1.00;;;;;;5023827;28;20157;-53
2022/08/25 01:50:19;;;;;;;3.25;2.92;;;26.90;1.00;;;;;;5035310;28;20030;-54
2022/08/25 01:52:57;;;;;;;5.38;2.55;;;26.80;1.00;;;;;;5033900;28;20511;-54
2022/08/25 01:55:23;;;;;;;4.13;2.50;;;26.90;1.00;;;;;;5047615;28;20432;-54
2022/08/25 01:58:01;;;;;;;5.68;3.00;;;26.70;1.00;;;;;;5034636;28;20053;-53
2022/08/25 02:00:26;;;;;;;4.05;2.55;;;26.80;1.00;;;;;;5032744;28;20026;-52
2022/08/25 02:02:52;;;;;;;6.45;2.83;;;26.80;1.00;;;;;;5033419;28;20115;-52
2022/08/25 02:05:18;;;;;;;5.15;2.83;;;26.80;1.00;;;;;;5033768;28;20026;-52
2022/08/25 02:07:44;;;;;;;5.45;2.53;;;26.70;1.00;;;;;;5034228;28;20022;-54
2022/08/25 02:10:12;;;;;;;5.25;2.78;;;26.70;1.00;;;;;;5042628;28;20037;-54
2022/08/25 02:12:38;;;;;;;5.90;3.00;;;26.70;1.00;;;;;;5034369;28;20063;-55
2022/08/25 02:15:07;;;;;;;5.70;3.05;;;26.70;1.00;;;;;;5033570;28;20088;-53
2022/08/25 02:17:35;;;;;;;4.43;2.40;;;26.60;1.00;;;;;;5036380;28;20025;-51
2022/08/25 02:20:03;;;;;;;7.05;3.08;;;26.70;1.00;;;;;;5051687;28;20036;-52
2022/08/25 02:22:28;;;;;;;6.18;2.70;;;26.60;1.00;;;;;;5034878;28;20124;-53
2022/08/25 02:24:54;;;;;;;4.32;2.65;;;26.60;1.00;;;;;;5042057;28;20175;-53
2022/08/25 02:27:20;;;;;;;4.70;2.78;;;26.60;1.00;;;;;;5033198;28;20036;-54
2022/08/25 02:29:46;;;;;;;6.30;2.65;;;26.50;1.00;;;;;;5041412;28;20029;-53
2022/08/25 02:32:11;;;;;;;4.13;2.80;;;26.60;1.00;;;;;;5020246;28;20067;-56
2022/08/25 02:34:39;;;;;;;5.72;2.45;;;26.50;1.00;;;;;;5033112;28;20048;-56
2022/08/25 02:37:05;;;;;;;5.40;2.42;;;26.60;1.00;;;;;;5031754;28;20394;-54
2022/08/25 02:39:31;;;;;;;5.40;3.08;;;26.60;1.00;;;;;;5037957;28;20112;-53
2022/08/25 02:41:58;;;;;;;6.25;3.13;;;26.50;1.00;;;;;;5033266;28;20037;-54
2022/08/25 02:44:24;;;;;;;4.13;2.42;;;26.50;1.00;;;;;;5031019;28;20491;-55
2022/08/25 02:46:50;;;;;;;4.47;2.50;;;26.40;1.00;;;;;;5032680;28;20033;-51
2022/08/25 02:49:15;;;;;;;5.07;3.22;;;26.50;1.00;;;;;;5036291;28;20074;-51
2022/08/25 02:51:41;;;;;;;3.10;2.40;;;26.50;1.00;;;;;;5035360;28;20083;-52
2022/08/25 02:54:07;;;;;;;6.78;2.78;;;26.50;1.00;;;;;;5032696;28;20045;-53
2022/08/25 02:56:33;;;;;;;7.20;3.00;;;26.40;1.00;;;;;;5033639;28;20041;-54
2022/08/25 02:59:00;;;;;;;5.82;2.30;;;26.50;1.00;;;;;;5032809;28;20022;-54
2022/08/25 03:01:32;;;;;;;3.15;2.45;;;26.50;1.00;;;;;;5033348;28;20069;-53
2022/08/25 03:03:58;;;;;;;5.47;2.70;;;26.50;1.00;;;;;;5032478;28;20029;-55
2022/08/25 03:06:23;;;;;;;3.60;2.85;;;26.50;1.00;;;;;;5032453;28;20035;-53
2022/08/25 03:08:50;;;;;;;5.13;2.60;;;26.50;1.00;;;;;;5033371;28;20327;-53
2022/08/25 03:11:16;;;;;;;4.00;2.70;;;26.50;1.00;;;;;;5034212;28;20072;-53
2022/08/25 03:13:42;;;;;;;2.67;2.22;;;26.40;1.00;;;;;;5033453;28;20424;-53
2022/08/25 03:16:11;;;;;;;3.20;2.63;;;26.50;1.00;;;;;;5032223;28;20017;-51
2022/08/25 03:18:39;;;;;;;5.38;3.08;;;26.40;1.00;;;;;;5031877;28;20063;-54
2022/08/25 03:21:05;;;;;;;7.75;3.08;;;26.30;1.00;;;;;;5034144;28;20045;-54
2022/08/25 03:23:30;;;;;;;4.20;2.42;;;26.30;1.00;;;;;;5031943;28;20036;-55
2022/08/25 03:28:40;;;;;;;4.22;2.60;;;26.40;1.00;;;;;;5033409;28;20072;-51
2022/08/25 03:31:06;;;;;;;6.63;2.65;;;26.40;1.00;;;;;;5036564;28;20081;-51
2022/08/25 03:33:32;;;;;;;4.80;2.85;;;26.40;1.00;;;;;;5032879;28;20029;-52
2022/08/25 03:35:58;;;;;;;3.35;2.75;;;26.40;1.00;;;;;;5031992;28;20036;-52
2022/08/25 03:38:25;;;;;;;3.72;2.60;;;26.40;1.00;;;;;;5032726;28;20395;-52
2022/08/25 03:40:56;;;;;;;3.78;2.67;;;26.40;1.00;;;;;;5037101;28;20033;-53
2022/08/25 03:43:22;;;;;;;7.03;2.80;;;26.40;1.00;;;;;;5032724;28;20495;-55
2022/08/25 03:45:48;;;;;;;3.53;2.38;;;26.40;1.00;;;;;;5031747;28;20060;-54
2022/08/25 03:48:14;;;;;;;3.10;2.83;;;26.40;1.00;;;;;;5032505;28;20053;-54
2022/08/25 03:50:49;;;;;;;5.30;2.35;;;26.40;1.00;;;;;;5031618;28;20021;-53
2022/08/25 03:53:15;;;;;;;4.95;2.58;;;26.40;1.00;;;;;;5032476;28;20036;-55
2022/08/25 03:55:41;;;;;;;5.32;2.80;;;26.30;1.00;;;;;;5030335;28;20030;-51
2022/08/25 03:58:06;;;;;;;4.28;2.75;;;26.20;1.00;;;;;;5030106;28;20026;-54
2022/08/25 04:00:32;;;;;;;4.85;2.92;;;26.20;1.00;;;;;;5030937;28;20088;-56
2022/08/25 04:02:58;;;;;;;3.13;2.83;;;26.20;1.00;;;;;;5032294;28;20069;-52
2022/08/25 04:05:24;;;;;;;4.47;3.03;;;26.20;1.00;;;;;;5029799;28;20048;-51
2022/08/25 04:07:49;;;;;;;3.42;2.70;;;26.20;1.00;;;;;;5032136;28;20025;-52
2022/08/25 04:10:24;;;;;;;5.38;3.17;;;26.10;1.00;;;;;;5039378;28;20039;-53
2022/08/25 04:12:49;;;;;;;4.90;3.22;;;26.00;1.00;;;;;;5033870;28;20372;-54
2022/08/25 04:15:15;;;;;;;4.68;2.75;;;26.00;1.00;;;;;;5035780;28;20119;-56
2022/08/25 04:17:41;;;;;;;4.53;2.97;;;25.90;1.00;;;;;;5032068;28;20030;-54
2022/08/25 04:20:09;;;;;;;4.78;3.50;;;25.90;1.00;;;;;;5038026;28;20083;-56
2022/08/25 04:22:37;;;;;;;6.35;3.17;;;25.90;1.00;;;;;;5037186;28;20048;-54
2022/08/25 04:25:05;;;;;;;5.18;3.38;;;25.80;1.00;;;;;;5030031;28;20148;-55
2022/08/25 04:27:34;;;;;;;8.38;3.55;;;25.80;1.00;;;;;;5031576;28;20025;-55
2022/08/25 04:30:00;;;;;;;6.13;3.40;;;25.80;1.00;;;;;;5029506;28;20029;-55
2022/08/25 04:32:26;;;;;;;3.60;3.30;;;25.80;1.00;;;;;;5021418;28;20049;-51
2022/08/25 04:34:52;;;;;;;5.18;3.50;;;25.80;1.00;;;;;;5031617;28;20022;-54
2022/08/25 04:37:18;;;;;;;6.53;3.35;;;25.80;1.00;;;;;;5031113;28;20331;-51
2022/08/25 04:39:43;;;;;;;4.72;3.22;;;25.70;1.00;;;;;;5031555;28;20026;-52
2022/08/25 04:42:09;;;;;;;6.32;3.42;;;25.90;1.00;;;;;;5030655;28;20116;-55
2022/08/25 04:44:35;;;;;;;7.93;3.65;;;25.90;1.00;;;;;;5037929;28;20035;-53
2022/08/25 04:47:00;;;;;;;4.32;3.50;;;25.80;1.00;;;;;;5031895;28;20025;-54
2022/08/25 04:49:28;;;;;;;6.90;3.42;;;25.80;1.00;;;;;;5030977;28;20464;-53
2022/08/25 04:51:55;;;;;;;5.60;2.85;;;25.70;1.00;;;;;;5030174;28;20040;-53
2022/08/25 04:54:20;;;;;;;7.03;3.30;;;25.70;1.00;;;;;;5040887;28;20418;-55
2022/08/25 04:56:48;;;;;;;5.35;2.97;;;25.80;1.00;;;;;;5031551;28;20112;-53
2022/08/25 04:59:15;;;;;;;4.30;3.47;;;25.80;1.00;;;;;;5030880;28;20030;-55
2022/08/25 05:01:42;;;;;;;5.50;3.42;;;25.80;1.00;;;;;;5034014;28;20037;-57
2022/08/25 05:04:10;;;;;;;6.28;3.53;;;25.90;1.00;;;;;;5034786;28;20390;-57
2022/08/25 05:06:36;;;;;;;4.95;3.67;;;25.80;1.00;;;;;;5035849;28;20116;-57
2022/08/25 05:09:03;;;;;;;6.28;3.83;;;25.80;1.00;;;;;;5034410;28;20475;-57
2022/08/25 05:11:29;;;;;;;5.53;3.47;;;25.80;1.00;;;;;;5035043;28;20044;-57
2022/08/25 05:13:56;;;;;;;5.60;4.50;;;25.80;1.00;;;;;;5028297;28;20183;-55
2022/08/25 05:16:24;;;;;;;5.13;4.07;;;25.80;1.00;;;;;;5035591;28;20048;-54
2022/08/25 05:18:50;;;;;;;5.45;4.38;;;25.80;1.00;;;;;;5034662;28;20030;-55
2022/08/25 05:21:21;;;;;;;5.88;4.47;;;25.80;1.00;;;;;;5035359;28;20076;-51
2022/08/25 05:23:47;;;;;;;6.30;4.57;;;25.80;1.00;;;;;;5037666;28;20026;-56
2022/08/25 05:26:16;;;;;;;8.25;4.75;;;25.70;1.00;;;;;;5045280;28;20362;-56
2022/08/25 05:28:42;;;;;;;6.60;3.90;;;25.70;1.00;;;;;;5040868;28;20034;-56
2022/08/25 05:31:10;;;;;;;6.85;4.50;;;25.70;1.00;;;;;;5035127;28;20053;-56
2022/08/25 05:33:36;;;;;;;8.98;4.30;;;25.70;1.00;;;;;;5034214;28;20390;-55
2022/08/25 05:36:03;;;;;;;4.38;3.97;;;25.70;1.00;;;;;;5033704;28;20033;-56
2022/08/25 05:38:29;;;;;;;4.97;3.67;;;25.60;1.00;;;;;;5039193;28;20437;-56
2022/08/25 05:40:59;;;;;;;6.90;3.63;;;25.60;1.00;;;;;;5034109;28;20025;-54
2022/08/25 05:43:25;;;;;;;3.70;2.90;;;25.60;1.00;;;;;;5039662;28;20033;-54
2022/08/25 05:45:54;;;;;;;5.35;3.80;;;25.70;1.00;;;;;;5034377;28;20496;-56
2022/08/25 05:48:20;;;;;;;6.57;3.60;;;25.70;1.00;;;;;;5040396;28;20028;-56
2022/08/25 05:50:53;;;;;;;7.65;3.97;;;25.70;1.00;;;;;;5036831;28;20103;-54
2022/08/25 05:53:19;;;;;;;6.38;3.67;;;25.70;1.00;;;;;;5033903;28;20029;-56
2022/08/25 05:55:46;;;;;;;7.15;3.17;;;25.80;1.00;;;;;;5034921;28;20025;-53
2022/08/25 05:58:11;;;;;;;7.97;3.90;;;25.80;1.00;;;;;;5037654;28;20505;-52
2022/08/25 06:00:41;;;;;;;6.55;4.28;;;25.90;1.00;;;;;;5039447;28;20029;-51
2022/08/25 06:03:07;;;;;;;5.03;4.50;;;25.80;1.00;;;;;;5033805;28;20042;-52
2022/08/25 06:05:33;;;;;;;9.35;4.32;;;25.80;1.00;;;;;;5033418;28;20018;-56
2022/08/25 06:07:59;;;;;;;6.35;4.35;;;25.90;1.00;;;;;;5032099;28;20083;-53
2022/08/25 06:10:25;;;;;;;7.25;4.63;;;25.90;1.00;;;;;;5032891;28;20128;-56
2022/08/25 06:12:51;;;;;;;6.72;4.53;;;25.90;1.00;;;;;;5033706;28;20029;-53
2022/08/25 06:15:20;;;;;;;5.75;5.15;;;25.80;1.00;;;;;;5034362;28;20167;-51
2022/08/25 06:17:46;;;;;;;8.35;5.95;;;25.80;1.00;;;;;;5032982;28;20049;-54
2022/08/25 06:20:15;;;;;;;10.80;5.18;;;25.80;1.00;;;;;;5034417;28;20096;-54
2022/08/25 06:22:41;;;;;;;7.15;4.97;;;25.80;1.00;;;;;;5033767;28;20038;-53
2022/08/25 06:25:09;;;;;;;8.80;5.25;;;25.80;1.00;;;;;;5033664;28;20493;-56
2022/08/25 06:27:36;;;;;;;5.50;4.43;;;25.80;1.00;;;;;;5032443;28;20026;-56
2022/08/25 06:30:03;;;;;;;10.48;6.35;;;25.80;1.00;;;;;;5035051;28;20026;-52
2022/08/25 06:32:34;;;;;;;10.55;6.35;;;25.80;1.00;;;;;;5032582;28;20133;-54
2022/08/25 06:35:04;;;;;;;7.35;4.90;;;25.80;1.00;;;;;;5032388;28;20032;-51
2022/08/25 06:37:30;;;;;;;12.30;5.68;;;25.80;1.00;;;;;;5045832;28;20442;-54
2022/08/25 06:39:56;;;;;;;6.53;5.15;;;25.70;1.00;;;;;;5036248;28;20051;-51
2022/08/25 06:42:21;;;;;;;9.32;5.28;;;25.90;1.00;;;;;;5033747;28;20037;-55
2022/08/25 06:44:47;;;;;;;9.32;5.18;;;25.90;1.00;;;;;;5033871;28;20045;-55
2022/08/25 06:47:14;;;;;;;8.52;5.63;;;25.90;1.00;;;;;;5033148;28;20056;-54
2022/08/25 06:49:41;;;;;;;6.13;4.97;;;26.00;1.00;;;;;;5031279;28;20083;-52
2022/08/25 06:52:07;;;;;;;6.30;4.80;;;26.00;1.00;;;;;;5033501;28;20100;-54
2022/08/25 06:54:33;;;;;;;7.32;5.32;;;26.10;1.00;;;;;;5033988;28;20439;-52
2022/08/25 06:56:59;;;;;;;8.80;4.82;;;26.00;1.00;;;;;;5032806;28;20040;-51
2022/08/25 06:59:25;;;;;;;8.57;5.32;;;26.10;1.00;;;;;;5032875;28;20451;-52
2022/08/25 07:01:51;;;;;;;8.70;5.38;;;26.10;1.00;;;;;;5037309;28;20124;-55
2022/08/25 07:04:18;;;;;;;7.85;4.85;;;26.20;1.00;;;;;;5033349;28;20097;-54
2022/08/25 07:06:44;;;;;;;6.10;5.43;;;26.20;1.00;;;;;;5037828;28;20048;-51
2022/08/25 07:09:11;;;;;;;11.38;5.10;;;26.20;1.00;;;;;;5031663;28;20021;-51
2022/08/25 07:11:38;;;;;;;10.73;5.18;;;26.20;1.00;;;;;;5038480;28;20030;-54
2022/08/25 07:14:06;;;;;;;9.90;5.28;;;26.30;1.00;;;;;;5033371;28;20040;-52
2022/08/25 07:16:32;;;;;;;7.75;4.82;;;26.40;1.00;;;;;;5039182;28;20141;-56
2022/08/25 07:19:19;;;;;;;13.52;5.32;;;26.40;1.00;;;;;;5032038;28;20029;-51
2022/08/25 07:21:45;;;;;;;10.70;5.00;;;26.50;1.00;;;;;;5040519;28;20520;-55
2022/08/25 07:24:12;;;;;;;7.47;4.57;;;26.60;1.00;;;;;;5032560;28;20017;-53
2022/08/25 07:26:41;;;;;;;6.22;4.82;;;26.50;1.00;;;;;;5031445;28;20474;-55
2022/08/25 07:29:16;;;;;;;9.77;5.97;;;26.50;1.00;;;;;;5033082;28;20053;-55
2022/08/25 07:31:42;;;;;;;9.25;5.55;;;26.50;1.00;;;;;;5031933;28;20551;-54
2022/08/25 07:36:54;;;;;;;6.30;3.75;;;26.60;1.00;;;;;;5032251;28;20045;-51
2022/08/25 07:39:20;;;;;;;7.15;5.15;;;26.60;1.00;;;;;;5031617;28;20044;-51
2022/08/25 07:45:09;;;;;;;6.15;3.85;;;26.70;1.00;;;;;;5022869;28;20168;-54
2022/08/25 07:47:36;;;;;;;4.82;3.70;;;26.80;1.00;;;;;;5023139;28;20021;-53
2022/08/25 07:50:01;;;;;;;7.60;4.28;;;26.90;1.00;;;;;;5032265;28;20029;-50
2022/08/25 07:52:27;;;;;;;6.10;4.75;;;27.00;1.00;;;;;;5045734;28;20331;-54
2022/08/25 07:54:54;;;;;;;5.25;4.18;;;27.00;1.00;;;;;;5032054;28;20138;-54
2022/08/25 07:57:21;;;;;;;4.00;3.63;;;27.00;1.00;;;;;;5032278;28;20022;-54
2022/08/25 07:59:46;;;;;;;6.47;4.63;;;27.10;1.00;;;;;;5032727;28;20044;-52
2022/08/25 08:02:12;;;;;;;5.88;3.35;;;27.00;1.00;;;;;;5032212;28;20473;-55
2022/08/25 08:04:38;;;;;;;5.07;4.30;;;27.00;1.00;;;;;;5032443;28;20021;-54
2022/08/25 08:07:05;;;;;;;6.43;4.30;;;27.00;1.00;;;;;;5031142;28;20028;-56
2022/08/25 08:09:31;;;;;;;7.80;3.95;;;27.10;1.00;;;;;;5032200;28;20116;-57
2022/08/25 08:11:57;;;;;;;4.53;3.90;;;27.20;1.00;;;;;;5032632;28;20036;-55
2022/08/25 08:14:23;;;;;;;13.05;3.88;;;27.20;1.00;;;;;;5032366;28;20014;-55
2022/08/25 08:16:49;;;;;;;4.93;4.20;;;27.20;1.00;;;;;;5023054;28;20042;-54
2022/08/25 08:19:16;;;;;;;15.68;5.55;;;27.20;1.00;;;;;;5026348;28;20167;-54
2022/08/25 08:21:42;;;;;;;12.90;4.15;;;27.20;1.00;;;;;;5035250;28;20116;-56
2022/08/25 08:24:08;;;;;;;8.18;3.70;;;27.30;1.00;;;;;;5034748;28;20036;-55
2022/08/25 08:26:33;;;;;;;7.03;3.95;;;27.30;1.00;;;;;;5032822;28;20025;-52
2022/08/25 08:28:59;;;;;;;20.30;6.43;;;27.30;1.00;;;;;;5032334;28;20014;-53
2022/08/25 08:31:27;;;;;;;10.65;3.63;;;27.40;1.00;;;;;;5030200;28;20053;-50
2022/08/25 08:33:54;;;;;;;9.02;3.25;;;27.40;1.00;;;;;;5029562;28;20048;-55
2022/08/25 08:36:20;;;;;;;3.35;3.05;;;27.40;1.00;;;;;;5029345;28;20037;-54
2022/08/25 08:38:46;;;;;;;4.88;3.20;;;27.40;1.00;;;;;;5031810;28;20036;-54
2022/08/25 08:44:29;;;;;;;2.67;2.45;;;27.50;1.00;;;;;;5032075;28;20032;-59
2022/08/25 08:47:33;;;;;;;3.47;2.88;;;27.60;1.00;;;;;;5026732;28;20539;-48
2022/08/25 08:50:02;;;;;;;7.75;3.28;;;27.60;1.00;;;;;;5031108;28;20313;-57
2022/08/25 08:52:50;;;;;;;6.55;3.38;;;27.60;1.00;;;;;;5030844;28;20060;-58
2022/08/25 08:55:43;;;;;;;4.18;2.80;;;27.60;1.00;;;;;;5030937;28;20033;-57
2022/08/25 08:58:19;;;;;;;4.95;3.17;;;27.70;1.00;;;;;;5019088;28;20040;-58
2022/08/25 09:00:51;;;;;;;6.90;4.03;;;27.70;1.00;;;;;;5027191;28;20060;-57
2022/08/25 09:03:22;;;;;;;5.10;3.55;;;27.80;1.00;;;;;;5028267;28;20055;-57
2022/08/25 09:05:51;;;;;;;6.53;3.22;;;27.80;1.00;;;;;;5031619;28;20108;-56
2022/08/25 09:08:17;;;;;;;7.60;3.85;;;27.90;1.00;;;;;;5033789;28;20528;-58
2022/08/25 09:11:15;;;;;;;5.78;3.35;;;27.90;1.00;;;;;;5037189;28;20029;-59
2022/08/25 09:13:49;;;;;;;6.85;3.97;;;28.00;1.00;;;;;;5023558;28;20032;-58
2022/08/25 09:19:46;;;;;;;4.63;3.92;;;28.00;1.00;;;;;;5030688;28;20060;-58
2022/08/25 09:22:26;;;;;;;4.55;3.58;;;28.00;1.00;;;;;;5030042;28;20038;-56
2022/08/25 09:25:16;;;;;;;6.43;4.55;;;28.10;1.00;;;;;;5030474;28;20480;-58
2022/08/25 09:28:04;;;;;;;7.22;3.90;;;28.20;1.00;;;;;;5031340;28;20064;-57
2022/08/25 09:30:50;;;;;;;12.02;3.75;;;28.10;1.00;;;;;;5020376;28;20079;-57
2022/08/25 09:33:19;;;;;;;5.43;3.35;;;28.20;1.00;;;;;;5028924;28;20036;-56
2022/08/25 09:35:46;;;;;;;7.28;3.15;;;28.20;1.00;;;;;;5041447;28;20029;-56
2022/08/25 09:38:12;;;;;;;6.68;3.42;;;28.30;1.00;;;;;;5030849;28;20025;-58
2022/08/25 09:40:44;;;;;;;4.82;3.40;;;28.30;1.00;;;;;;5041832;28;20112;-57
2022/08/25 09:43:28;;;;;;;4.55;2.40;;;28.40;1.00;;;;;;5030800;28;20042;-58
2022/08/25 09:45:59;;;;;;;5.10;3.22;;;28.40;1.00;;;;;;5025676;28;20093;-58
2022/08/25 09:48:41;;;;;;;6.32;3.33;;;28.40;1.00;;;;;;5029200;28;20048;-58
2022/08/25 09:51:31;;;;;;;4.22;2.70;;;28.50;1.00;;;;;;5034394;28;20087;-58
2022/08/25 09:53:59;;;;;;;6.20;2.40;;;28.60;1.00;;;;;;5033823;28;20367;-58
2022/08/25 09:56:27;;;;;;;4.78;2.33;;;28.60;1.00;;;;;;5035089;28;20068;-58
2022/08/25 09:58:56;;;;;;;4.25;2.92;;;28.60;1.00;;;;;;5036341;28;20025;-58
2022/08/25 10:01:23;;;;;;;3.65;2.58;;;28.60;1.00;;;;;;5034985;28;20371;-58
2022/08/25 10:04:04;;;;;;;4.80;2.72;;;28.70;1.00;;;;;;5035565;28;20505;-57
2022/08/25 10:06:43;;;;;;;6.85;2.97;;;28.80;1.00;;;;;;5034899;28;20549;-58
2022/08/25 10:09:21;;;;;;;2.67;2.30;;;28.70;1.00;;;;;;5032539;28;20482;-58
2022/08/25 10:11:47;;;;;;;5.75;3.58;;;28.80;1.00;;;;;;5034964;28;20030;-58
2022/08/25 10:14:24;;;;;;;3.10;2.70;;;28.90;1.00;;;;;;5036881;28;20091;-58
2022/08/25 10:16:52;;;;;;;6.15;3.00;;;28.80;1.00;;;;;;5034849;28;20065;-58
2022/08/25 10:19:22;;;;;;;4.35;2.40;;;28.90;1.00;;;;;;5038962;28;20029;-57
2022/08/25 10:22:05;;;;;;;2.50;2.30;;;28.90;1.00;;;;;;5034733;28;20029;-58
2022/08/25 10:24:31;;;;;;;2.58;2.38;;;29.00;1.00;;;;;;5033493;28;20485;-58
2022/08/25 10:27:09;;;;;;;2.60;2.40;;;29.10;1.00;;;;;;5034458;28;20025;-58
2022/08/25 10:29:40;;;;;;;4.50;3.28;;;29.10;1.00;;;;;;5040041;28;20083;-58
2022/08/25 10:32:31;;;;;;;2.88;2.20;;;29.10;1.00;;;;;;5034193;28;20064;-58
2022/08/25 10:35:03;;;;;;;6.15;2.55;;;29.30;1.00;;;;;;5033644;28;20403;-58
2022/08/25 10:37:59;;;;;;;3.22;2.20;;;29.30;1.00;;;;;;5033573;28;20030;-57
2022/08/25 10:40:31;;;;;;;3.00;2.65;;;29.30;1.00;;;;;;5022293;28;20108;-58
2022/08/25 10:42:56;;;;;;;4.65;2.22;;;29.30;1.00;;;;;;5034008;28;20099;-58
2022/08/25 10:45:42;;;;;;;3.50;2.60;;;29.50;1.00;;;;;;5033202;28;20025;-56
2022/08/25 10:48:47;;;;;;;3.67;2.30;;;29.50;1.00;;;;;;5034168;28;20099;-59
2022/08/25 10:51:42;;;;;;;3.65;2.97;;;29.50;1.00;;;;;;5029989;28;20041;-58
2022/08/25 10:54:17;;;;;;;3.40;2.50;;;29.60;1.00;;;;;;5033345;28;20030;-58
2022/08/25 10:56:50;;;;;;;5.95;2.80;;;29.60;1.00;;;;;;5034262;28;20029;-59
2022/08/25 10:59:45;;;;;;;6.28;3.03;;;29.70;1.00;;;;;;5032502;28;20442;-58
2022/08/25 11:02:16;;;;;;;3.00;2.70;;;29.70;1.00;;;;;;5022672;28;20045;-58
2022/08/25 11:04:56;;;;;;;2.75;2.55;;;29.80;1.00;;;;;;5036922;28;20095;-58
2022/08/25 11:07:44;;;;;;;3.45;2.67;;;30.00;1.00;;;;;;5033988;28;20025;-58
2022/08/25 11:10:14;;;;;;;2.40;2.20;;;30.10;1.00;;;;;;5042492;28;20025;-59
2022/08/25 11:13:02;;;;;;;3.55;2.40;;;30.10;1.00;;;;;;5033771;28;20559;-57
2022/08/25 11:19:36;;;;;;;2.45;2.30;;;30.10;1.00;;;;;;5021456;28;20509;-58
2022/08/25 11:22:24;;;;;;;5.47;2.88;;;30.10;1.00;;;;;;5032769;28;20389;-59
2022/08/25 11:25:09;;;;;;;4.13;2.70;;;30.30;1.00;;;;;;5039881;28;20029;-59
2022/08/25 11:27:57;;;;;;;2.63;2.40;;;30.50;1.00;;;;;;5027215;28;20044;-59
2022/08/25 11:30:23;;;;;;;3.97;3.28;;;30.30;1.00;;;;;;5035538;28;20438;-59
2022/08/25 11:32:51;;;;;;;5.57;2.75;;;30.50;1.00;;;;;;5032776;28;20545;-59
2022/08/25 11:35:25;;;;;;;2.88;2.63;;;30.50;1.00;;;;;;5033220;28;20026;-59
2022/08/25 11:38:23;;;;;;;3.30;3.00;;;30.60;1.00;;;;;;5033104;28;20043;-59
2022/08/25 11:44:28;;;;;;;2.65;2.38;;;30.80;1.00;;;;;;5027583;28;20067;-59
2022/08/25 11:47:14;;;;;;;2.85;2.42;;;30.80;1.00;;;;;;5033024;28;20021;-59
2022/08/25 11:49:56;;;;;;;4.28;2.30;;;30.80;1.00;;;;;;5038465;28;20047;-59
2022/08/25 11:52:48;;;;;;;2.38;1.92;;;30.80;1.00;;;;;;5032986;28;20045;-59
2022/08/25 11:55:35;;;;;;;2.90;2.40;;;31.00;1.00;;;;;;5041629;28;20033;-59
2022/08/25 11:58:28;;;;;;;2.50;2.30;;;31.20;1.00;;;;;;5028743;28;20022;-59
2022/08/25 12:00:55;;;;;;;3.33;2.45;;;31.40;1.00;;;;;;5027559;28;20041;-59
2022/08/25 12:03:36;;;;;;;3.70;2.60;;;31.50;1.00;;;;;;5025056;28;20411;-59
2022/08/25 12:06:28;;;;;;;2.90;2.70;;;31.60;1.00;;;;;;5039606;28;20029;-59
2022/08/25 12:09:01;;;;;;;2.95;2.42;;;33.20;1.00;;;;;;5033398;28;20383;-59
2022/08/25 12:11:48;;;;;;;4.68;2.80;;;35.70;1.00;;;;;;5029805;28;20017;-59
2022/08/25 12:14:14;;;;;;;3.92;2.90;;;37.40;1.00;;;;;;5031891;28;20032;-59
2022/08/25 12:16:55;;;;;;;3.65;3.25;;;40.00;1.00;;;;;;5035761;28;20025;-59
2022/08/25 12:19:48;;;;;;;6.30;3.90;;;43.50;1.00;;;;;;5035321;28;20047;-60
2022/08/25 12:22:21;;;;;;;3.45;3.20;;;44.90;1.00;;;;;;5011608;28;20045;-59
2022/08/25 12:24:54;;;;;;;4.07;3.67;;;45.50;1.00;;;;;;5026117;28;20399;-59
2022/08/25 12:27:47;;;;;;;5.15;3.75;;;45.80;1.00;;;;;;5032613;28;20020;-59
2022/08/25 12:30:20;;;;;;;4.47;4.18;;;45.40;1.00;;;;;;5030287;28;20026;-59
2022/08/25 12:33:04;;;;;;;4.43;4.13;;;45.10;1.00;;;;;;5032450;28;20088;-59
2022/08/25 12:36:07;;;;;;;4.80;4.40;;;44.80;1.00;;;;;;5027593;28;20040;-60
2022/08/25 12:38:43;;;;;;;4.80;4.40;;;44.30;1.00;;;;;;5032549;28;20112;-60
2022/08/25 12:41:10;;;;;;;4.70;4.40;;;41.80;1.00;;;;;;5033346;28;20033;-60
2022/08/25 12:43:42;;;;;;;5.18;4.88;;;40.70;1.00;;;;;;5036882;28;20067;-60
2022/08/25 12:46:26;;;;;;;5.25;4.95;;;40.10;1.00;;;;;;5039515;28;20029;-59
2022/08/25 12:49:29;;;;;;;5.45;5.15;;;39.50;1.00;;;;;;5032075;28;20041;-58
2022/08/25 12:52:03;;;;;;;5.70;5.40;;;39.40;1.00;;;;;;5025346;28;20037;-60
2022/08/25 12:54:57;;;;;;;6.85;6.45;;;42.30;1.00;;;;;;5031150;28;20050;-60
2022/08/25 12:57:45;;;;;;;6.05;5.70;;;45.20;1.00;;;;;;5032169;28;20066;-58
2022/08/25 13:00:26;;;;;;;7.00;6.43;;;47.80;99.90;;;;;;5032570;28;20053;-58
2022/08/25 13:02:52;;;;;;;6.03;5.63;;;48.70;99.90;;;;;;5027384;28;20042;-58
2022/08/25 13:05:45;;;;;;;6.25;6.00;;;48.90;99.90;;;;;;5032946;28;20017;-58
2022/08/25 13:09:01;;;;;;;6.35;5.93;;;49.40;99.90;;;;;;5030071;28;20086;-58
2022/08/25 13:11:55;;;;;;;6.50;6.20;;;49.60;99.90;;;;;;5029535;28;20029;-58
2022/08/25 13:14:38;;;;;;;7.00;6.60;;;50.30;99.90;;;;;;5030808;28;20487;-57
2022/08/25 13:17:36;;;;;;;6.53;6.22;;;50.30;99.90;;;;;;5040506;28;20064;-59
2022/08/25 13:20:34;;;;;;;7.00;6.63;;;51.10;99.90;;;;;;5017556;28;20050;-58
2022/08/25 13:23:00;;;;;;;6.28;5.95;;;49.80;99.90;;;;;;5017084;28;20395;-58
2022/08/25 13:25:28;;;;;;;6.50;6.20;;;51.60;99.90;;;;;;5033299;28;20028;-59
2022/08/25 13:27:57;;;;;;;6.20;5.90;;;51.20;99.90;;;;;;5038600;28;20025;-59
2022/08/25 13:30:33;;;;;;;6.88;6.57;;;51.30;99.90;;;;;;5035862;28;20497;-58
2022/08/25 13:33:14;;;;;;;6.82;6.32;;;51.90;99.90;;;;;;5035504;28;20038;-57
2022/08/25 13:35:48;;;;;;;6.10;5.90;;;52.30;99.90;;;;;;5036698;28;20083;-58
2022/08/25 13:38:18;;;;;;;7.00;6.55;;;52.30;99.90;;;;;;5035372;28;20100;-58
2022/08/25 13:40:44;;;;;;;6.15;5.90;;;52.60;99.90;;;;;;5034384;28;20391;-58